Time;durP1;ratioP1;P1;durP2;ratioP2;P2;SDS_P1;SDS_P2;PMS_P1;PMS_P2;Temp;Humidity;BMP_temperature;BMP_pressure;BME280_temperature;BME280_humidity;BME280_pressure;Samples;Min_cycle;Max_cycle;Signal;HPM_P1;HPM_P2
2022/08/18 06:14:44;;;;;;;83.67;41.30;;;17.40;99.90;;;;;;5233681;23;20239;-61
2022/08/18 06:17:41;;;;;;;106.63;44.67;;;17.50;99.90;;;;;;4928506;29;20217;-61
2022/08/18 06:20:24;;;;;;;95.57;42.80;;;17.50;99.90;;;;;;4894497;29;20229;-60
2022/08/18 06:23:02;;;;;;;81.27;43.07;;;17.50;99.90;;;;;;4928463;29;20209;-60
2022/08/18 06:48:38;;;;;;;71.65;45.22;;;18.10;99.90;;;;;;6115538;23;20402;-58
2022/08/18 06:51:08;;;;;;;67.60;39.97;;;18.20;99.90;;;;;;6094564;23;20492;-58
2022/08/18 06:53:55;;;;;;;68.17;39.37;;;18.30;99.90;;;;;;6132508;23;20284;-91
2022/08/18 06:56:28;;;;;;;69.10;40.07;;;18.50;99.90;;;;;;6130933;23;20163;-91
2022/08/18 06:59:18;;;;;;;64.43;37.67;;;18.60;99.90;;;;;;6077902;23;20442;-91
2022/08/18 07:01:50;;;;;;;76.93;40.43;;;18.80;99.90;;;;;;6105640;23;20249;-92
2022/08/18 07:04:37;;;;;;;85.93;38.93;;;18.90;99.90;;;;;;6130561;23;20170;-91
2022/08/18 07:07:19;;;;;;;63.43;35.60;;;18.90;99.90;;;;;;6130675;23;20194;-92
2022/08/18 07:09:49;;;;;;;65.43;38.07;;;18.90;99.90;;;;;;6130806;23;20194;-92
2022/08/18 07:12:24;;;;;;;73.90;41.20;;;19.00;99.90;;;;;;6132461;23;20257;-92
2022/08/18 07:15:04;;;;;;;68.40;39.80;;;19.20;99.90;;;;;;6134038;23;20225;-92
2022/08/18 07:17:36;;;;;;;69.60;39.30;;;19.40;99.90;;;;;;6133681;23;20177;-91
2022/08/18 07:20:20;;;;;;;62.97;38.70;;;19.40;99.90;;;;;;6133159;23;20246;-92
2022/08/18 07:22:56;;;;;;;60.70;38.73;;;19.90;99.90;;;;;;6110017;23;20209;-92
2022/08/18 07:25:30;;;;;;;69.07;39.03;;;20.20;99.90;;;;;;6134065;23;20151;-91
2022/08/18 07:28:04;;;;;;;74.10;39.20;;;20.00;99.90;;;;;;6133886;23;20522;-94
2022/08/18 07:30:38;;;;;;;75.67;42.13;;;19.80;99.90;;;;;;6132472;23;20240;-92
2022/08/18 07:33:31;;;;;;;78.60;44.10;;;19.80;99.90;;;;;;6134612;23;20241;-91
2022/08/18 07:36:08;;;;;;;76.13;44.20;;;19.80;99.90;;;;;;6107814;23;20187;-92
2022/08/18 07:38:46;;;;;;;77.97;45.57;;;19.80;99.90;;;;;;6126590;23;20189;-91
2022/08/18 07:41:19;;;;;;;78.17;45.30;;;19.80;99.90;;;;;;6123520;23;20225;-91
2022/08/18 07:44:03;;;;;;;77.20;42.47;;;19.90;99.90;;;;;;6126125;23;20243;-92
2022/08/18 07:46:44;;;;;;;76.80;43.17;;;20.00;99.90;;;;;;6127744;23;20289;-93
2022/08/18 07:49:19;;;;;;;81.43;42.83;;;20.10;99.90;;;;;;6128980;23;20210;-91
2022/08/18 07:51:54;;;;;;;80.53;44.50;;;20.20;99.90;;;;;;6102934;23;20195;-91
2022/08/18 07:54:35;;;;;;;77.77;44.53;;;20.40;99.90;;;;;;6076934;23;20182;-91
2022/08/18 07:57:27;;;;;;;73.30;42.93;;;20.50;99.90;;;;;;6102092;23;20259;-92
2022/08/18 08:00:09;;;;;;;66.60;41.03;;;20.70;99.90;;;;;;6076955;23;20177;-91
2022/08/18 08:03:04;;;;;;;69.57;42.83;;;21.20;99.90;;;;;;6077617;23;20175;-92
2022/08/18 08:06:05;;;;;;;73.43;43.07;;;21.30;99.90;;;;;;6102668;23;20604;-92
2022/08/18 08:08:42;;;;;;;64.10;38.70;;;21.40;99.90;;;;;;6101806;23;20515;-91
2022/08/18 08:11:20;;;;;;;63.73;38.63;;;21.60;99.90;;;;;;6077601;23;20667;-92
2022/08/18 08:14:05;;;;;;;62.03;38.30;;;21.70;99.90;;;;;;6128046;23;20196;-93
2022/08/18 08:16:44;;;;;;;53.67;34.50;;;21.70;99.90;;;;;;6102938;23;20511;-91
2022/08/18 08:19:35;;;;;;;56.10;36.07;;;21.70;99.90;;;;;;6077246;23;20227;-92
2022/08/18 08:22:30;;;;;;;53.23;34.40;;;21.90;99.90;;;;;;6101081;23;20233;-91
2022/08/18 08:25:06;;;;;;;50.57;33.37;;;22.00;99.90;;;;;;6078120;23;20196;-92
2022/08/18 08:28:10;;;;;;;50.63;34.33;;;22.00;99.90;;;;;;6102382;23;20260;-91
2022/08/18 08:30:47;;;;;;;55.93;35.90;;;22.30;99.90;;;;;;6101609;23;20174;-92
2022/08/18 08:33:23;;;;;;;59.50;37.07;;;22.20;99.90;;;;;;6127890;23;20180;-92
2022/08/18 08:35:59;;;;;;;52.53;34.03;;;22.10;99.90;;;;;;6103456;23;20172;-91
2022/08/18 08:38:35;;;;;;;56.40;34.83;;;22.00;99.90;;;;;;6078606;23;20219;-92
2022/08/18 08:41:18;;;;;;;52.50;33.10;;;22.10;99.90;;;;;;6103265;23;20176;-92
2022/08/18 08:43:57;;;;;;;45.43;32.57;;;22.20;99.90;;;;;;6102317;23;20188;-92
2022/08/18 08:46:29;;;;;;;48.20;31.07;;;22.40;99.90;;;;;;6102358;23;20163;-92
2022/08/18 08:49:08;;;;;;;46.47;33.27;;;22.60;99.90;;;;;;6077748;23;20173;-94
2022/08/18 08:51:39;;;;;;;55.40;35.30;;;22.90;99.90;;;;;;6127673;23;20162;-92
2022/08/18 08:54:15;;;;;;;48.40;34.13;;;23.00;99.90;;;;;;6124994;23;20207;-93
2022/08/18 08:56:49;;;;;;;53.27;33.70;;;23.00;99.90;;;;;;6101269;23;20173;-91
2022/08/18 08:59:20;;;;;;;47.80;35.17;;;23.20;99.90;;;;;;6125580;23;20166;-91
2022/08/18 09:05:24;;;;;;;42.50;29.93;;;23.30;99.90;;;;;;6127016;23;20207;-92
2022/08/18 09:08:20;;;;;;;37.23;27.80;;;23.90;99.90;;;;;;6127500;23;20176;-93
2022/08/18 09:11:10;;;;;;;35.63;28.63;;;24.50;99.90;;;;;;6126679;23;20171;-93
2022/08/18 09:14:15;;;;;;;31.97;25.53;;;24.90;99.90;;;;;;6128306;23;20249;-93
2022/08/18 09:16:59;;;;;;;29.70;24.35;;;25.10;99.90;;;;;;6127540;23;20619;-92
2022/08/18 09:20:01;;;;;;;29.85;25.88;;;25.30;99.90;;;;;;6102071;23;20235;-93
2022/08/18 09:22:42;;;;;;;30.90;24.13;;;25.40;99.90;;;;;;6101843;23;20564;-93
2022/08/18 09:25:28;;;;;;;33.15;26.90;;;25.70;99.90;;;;;;6127559;23;20163;-93
2022/08/18 09:28:11;;;;;;;34.33;27.00;;;25.70;99.90;;;;;;6102693;23;20256;-93
2022/08/18 09:30:46;;;;;;;32.50;27.48;;;25.50;99.90;;;;;;6102188;23;20199;-92
2022/08/18 09:52:49;;;;;;;12.30;11.00;;;26.10;99.90;;;;;;6135082;23;20258;-93
2022/08/18 09:55:53;;;;;;;18.02;16.13;;;27.20;99.90;;;;;;6102758;23;20203;-93
2022/08/18 09:58:53;;;;;;;20.95;18.65;;;27.50;99.90;;;;;;6052871;23;20603;-93
2022/08/18 10:01:32;;;;;;;17.95;16.15;;;27.70;99.90;;;;;;6099153;23;20221;-94
2022/08/18 10:04:31;;;;;;;22.10;17.52;;;28.00;99.90;;;;;;6098876;23;20547;-94
2022/08/18 10:07:34;;;;;;;19.20;17.10;;;28.10;99.90;;;;;;6050219;23;20236;-94
2022/08/18 10:10:23;;;;;;;21.83;17.50;;;28.40;99.90;;;;;;6040649;23;20501;-95
2022/08/18 10:13:24;;;;;;;19.52;16.73;;;28.50;99.90;;;;;;6074613;23;20159;-94
2022/08/18 10:16:06;;;;;;;17.85;16.08;;;28.90;99.90;;;;;;6050068;23;20598;-95
2022/08/18 10:19:06;;;;;;;20.75;17.30;;;29.10;99.90;;;;;;6049682;23;20202;-93
2022/08/18 10:22:06;;;;;;;13.88;12.27;;;29.20;99.90;;;;;;6049571;23;20167;-94
2022/08/18 10:24:39;;;;;;;16.60;15.02;;;29.20;99.90;;;;;;6050340;23;20234;-93
2022/08/18 10:27:32;;;;;;;19.00;16.98;;;28.60;99.90;;;;;;6049621;23;20171;-95
2022/08/18 10:30:26;;;;;;;15.63;13.95;;;27.70;99.90;;;;;;6049818;23;20163;-94
2022/08/18 10:33:03;;;;;;;15.90;13.55;;;27.40;99.90;;;;;;6049530;23;20234;-93
2022/08/18 10:35:57;;;;;;;14.32;12.82;;;27.50;99.90;;;;;;6072933;23;20223;-95
2022/08/18 10:38:40;;;;;;;12.55;11.10;;;28.30;99.90;;;;;;6049366;23;20288;-96
2022/08/18 10:41:31;;;;;;;10.23;9.32;;;29.10;99.90;;;;;;6049099;23;20167;-93
2022/08/18 10:44:02;;;;;;;10.07;9.07;;;29.70;99.90;;;;;;6097174;23;20182;-94
2022/08/18 10:46:53;;;;;;;12.32;11.13;;;30.10;99.90;;;;;;6072931;23;20202;-94
2022/08/18 10:49:25;;;;;;;14.20;12.90;;;30.00;99.90;;;;;;6098516;23;20494;-95
2022/08/18 10:52:21;;;;;;;15.65;14.00;;;30.30;99.90;;;;;;6073075;23;20195;-94
2022/08/18 10:55:13;;;;;;;14.52;13.13;;;30.00;99.90;;;;;;6088629;23;20206;-93
2022/08/18 10:58:06;;;;;;;15.02;13.65;;;30.20;99.90;;;;;;6150487;23;20190;-93
2022/08/18 11:00:51;;;;;;;14.68;12.13;;;30.70;99.90;;;;;;6101473;23;20163;-94
2022/08/18 11:03:40;;;;;;;13.57;12.25;;;31.30;99.90;;;;;;6125847;23;20167;-94
2022/08/18 11:06:23;;;;;;;15.68;14.13;;;31.40;99.90;;;;;;6125737;23;20191;-95
2022/08/18 11:08:56;;;;;;;16.42;14.75;;;31.10;99.90;;;;;;6101749;23;20163;-94
2022/08/18 11:11:29;;;;;;;17.10;15.25;;;30.40;99.90;;;;;;6125849;23;20171;-94
2022/08/18 11:14:22;;;;;;;15.95;13.90;;;29.60;99.90;;;;;;6102906;23;20167;-94
2022/08/18 11:17:01;;;;;;;15.48;13.98;;;29.50;99.90;;;;;;6129594;23;20178;-95
2022/08/18 11:19:38;;;;;;;15.32;13.82;;;29.70;99.90;;;;;;6129087;23;20198;-94
2022/08/18 11:22:23;;;;;;;21.38;13.43;;;29.80;99.90;;;;;;6104477;23;20612;-93
2022/08/18 11:25:01;;;;;;;15.93;14.07;;;30.40;99.90;;;;;;6103850;23;20179;-93
2022/08/18 11:27:49;;;;;;;15.50;13.95;;;30.10;99.90;;;;;;6103727;23;20179;-93
2022/08/18 11:30:21;;;;;;;17.55;15.88;;;29.30;99.90;;;;;;6103581;23;20179;-93
2022/08/18 11:32:59;;;;;;;16.60;14.90;;;28.20;99.90;;;;;;6104222;23;20168;-94
2022/08/18 11:35:34;;;;;;;18.38;16.67;;;27.50;99.90;;;;;;6103357;23;20258;-93
2022/08/18 11:38:04;;;;;;;18.10;16.02;;;27.60;99.90;;;;;;6103723;23;20186;-94
2022/08/18 11:40:42;;;;;;;18.02;15.73;;;28.20;99.90;;;;;;6103631;23;20337;-94
2022/08/18 11:43:33;;;;;;;18.77;16.98;;;28.80;99.90;;;;;;6103546;23;20167;-93
2022/08/18 11:46:24;;;;;;;18.02;16.17;;;29.20;99.90;;;;;;6103786;23;20177;-95
2022/08/18 11:48:58;;;;;;;21.95;17.42;;;28.80;99.90;;;;;;6103298;23;20165;-93
2022/08/18 11:51:32;;;;;;;16.48;14.85;;;28.60;99.90;;;;;;6103312;23;20191;-94
2022/08/18 11:54:03;;;;;;;24.45;18.17;;;28.70;99.90;;;;;;6103387;23;20213;-93
2022/08/18 12:04:22;;;;;;;19.98;17.60;;;29.00;99.90;;;;;;6103406;23;20260;-95
2022/08/18 12:07:04;;;;;;;17.48;15.68;;;29.00;99.90;;;;;;6127966;23;20179;-95
2022/08/18 12:09:37;;;;;;;17.50;16.00;;;29.10;99.90;;;;;;6103112;23;20174;-93
2022/08/18 12:12:29;;;;;;;18.55;15.15;;;29.20;99.90;;;;;;6103220;23;20172;-92
2022/08/18 12:15:04;;;;;;;19.52;17.48;;;29.50;99.90;;;;;;6103225;23;20167;-94
2022/08/18 12:17:45;;;;;;;22.70;18.63;;;29.40;99.90;;;;;;6103267;23;20210;-92
2022/08/18 12:20:21;;;;;;;21.05;18.00;;;29.00;99.90;;;;;;6103086;23;20265;-93
2022/08/18 12:22:53;;;;;;;18.92;16.88;;;29.10;99.90;;;;;;6102865;23;20177;-94
2022/08/18 12:25:22;;;;;;;16.95;15.15;;;29.40;99.90;;;;;;6102625;23;20172;-93
2022/08/18 12:27:56;;;;;;;19.27;17.48;;;29.60;99.90;;;;;;6102925;23;20208;-93
2022/08/18 12:30:25;;;;;;;18.65;16.83;;;29.50;99.90;;;;;;6102607;23;20609;-92
2022/08/18 12:33:31;;;;;;;19.52;17.30;;;29.20;99.90;;;;;;6102615;23;20172;-93
2022/08/18 12:36:15;;;;;;;20.33;17.90;;;29.10;99.90;;;;;;6102791;23;20456;-93
2022/08/18 12:38:47;;;;;;;20.45;18.10;;;29.10;99.90;;;;;;6102836;23;20193;-94
2022/08/18 12:41:35;;;;;;;19.55;17.15;;;28.80;99.90;;;;;;6102765;23;20176;-93
2022/08/18 12:44:05;;;;;;;22.50;17.58;;;28.60;99.90;;;;;;6152262;23;20174;-94
2022/08/18 12:46:40;;;;;;;19.58;17.52;;;28.50;99.90;;;;;;6127427;23;20180;-93
2022/08/18 12:49:29;;;;;;;20.30;16.67;;;28.40;99.90;;;;;;6102835;23;20220;-93
2022/08/18 12:52:01;;;;;;;21.05;17.73;;;28.60;99.90;;;;;;6102695;23;20224;-93
2022/08/18 12:54:35;;;;;;;20.23;18.23;;;28.80;99.90;;;;;;6151481;23;20200;-93
2022/08/18 12:57:27;;;;;;;20.05;17.88;;;28.90;99.90;;;;;;6127637;23;20251;-94
2022/08/18 13:00:16;;;;;;;21.40;17.90;;;29.30;99.90;;;;;;6102483;23;20188;-94
2022/08/18 13:02:49;;;;;;;22.35;18.75;;;29.50;99.90;;;;;;6127750;23;20180;-95
2022/08/18 13:05:20;;;;;;;20.35;17.70;;;29.70;99.90;;;;;;6102860;23;20268;-94
2022/08/18 13:08:00;;;;;;;20.10;18.10;;;29.50;99.90;;;;;;6127161;23;20176;-93
2022/08/18 13:10:33;;;;;;;22.40;17.58;;;29.20;99.90;;;;;;6103193;23;20164;-93
2022/08/18 13:13:13;;;;;;;19.17;15.68;;;28.90;99.90;;;;;;6127204;23;20211;-95
2022/08/18 13:15:42;;;;;;;18.02;16.23;;;28.80;99.90;;;;;;6127384;23;20492;-96
2022/08/18 13:18:26;;;;;;;19.30;17.33;;;28.70;99.90;;;;;;6127148;23;20543;-94
2022/08/18 13:20:57;;;;;;;20.85;16.30;;;28.50;99.90;;;;;;6127229;23;20219;-93
2022/08/18 13:23:30;;;;;;;21.08;18.85;;;28.30;99.90;;;;;;6102566;23;20225;-94
2022/08/18 13:26:01;;;;;;;19.33;16.50;;;28.00;99.90;;;;;;6102979;23;20180;-93
2022/08/18 13:33:18;;;;;;;16.92;15.27;;;28.00;99.90;;;;;;6128462;23;20143;-94
2022/08/18 13:36:09;;;;;;;17.67;15.88;;;27.90;99.90;;;;;;6102188;23;20168;-93
2022/08/18 13:38:41;;;;;;;13.43;12.20;;;27.90;99.90;;;;;;6126919;23;20255;-93
2022/08/18 13:41:13;;;;;;;14.20;12.80;;;27.80;99.90;;;;;;6102582;23;20168;-93
2022/08/18 13:43:45;;;;;;;12.23;11.13;;;27.70;99.90;;;;;;6127196;23;20197;-94
2022/08/18 13:46:18;;;;;;;12.35;11.20;;;27.70;99.90;;;;;;6102604;23;20168;-92
2022/08/18 13:49:01;;;;;;;15.63;12.82;;;27.60;99.90;;;;;;6127105;23;20248;-93
2022/08/18 13:51:31;;;;;;;11.52;10.32;;;27.40;99.90;;;;;;6102461;23;20544;-92
2022/08/18 13:54:01;;;;;;;11.88;10.70;;;27.30;99.90;;;;;;6102556;23;20286;-94
2022/08/18 13:56:52;;;;;;;14.23;12.70;;;27.30;99.90;;;;;;6106084;23;20228;-94
2022/08/18 13:59:23;;;;;;;14.55;11.50;;;27.20;99.90;;;;;;6104438;23;20187;-93
2022/08/18 14:01:54;;;;;;;13.43;12.13;;;27.30;99.90;;;;;;6103088;23;20202;-94
2022/08/18 14:04:24;;;;;;;14.18;10.05;;;27.40;99.90;;;;;;6102975;23;20171;-93
2022/08/18 14:06:56;;;;;;;12.85;10.38;;;27.50;99.90;;;;;;6102709;23;20168;-94
2022/08/18 14:09:31;;;;;;;11.57;10.15;;;27.70;99.90;;;;;;6103067;23;20160;-92
2022/08/18 14:12:10;;;;;;;11.88;10.10;;;27.90;99.90;;;;;;6102760;23;20167;-93
2022/08/18 14:14:50;;;;;;;9.98;8.75;;;28.00;99.90;;;;;;6102866;23;20167;-93
2022/08/18 14:17:20;;;;;;;9.45;8.60;;;28.20;99.90;;;;;;6102677;23;20251;-95
2022/08/18 14:28:28;;;;;;;10.10;7.95;;;29.20;99.90;;;;;;6104230;23;20197;-94
2022/08/18 14:30:58;;;;;;;7.13;6.35;;;28.70;99.90;;;;;;6128103;23;20172;-93
2022/08/18 14:33:28;;;;;;;6.85;6.35;;;28.30;99.90;;;;;;6103026;23;20184;-93
2022/08/18 14:36:17;;;;;;;7.18;6.47;;;28.30;99.90;;;;;;6102755;23;20635;-93
2022/08/18 14:43:39;;;;;;;6.72;6.13;;;28.90;99.90;;;;;;6128890;23;20208;-93
2022/08/18 14:46:28;;;;;;;7.13;6.45;;;29.30;99.90;;;;;;6103120;23;20168;-93
2022/08/18 14:49:03;;;;;;;6.72;6.15;;;29.50;99.90;;;;;;6104711;23;20601;-94
2022/08/18 14:51:32;;;;;;;7.72;6.93;;;29.80;99.90;;;;;;6130225;23;20524;-93
2022/08/18 14:54:01;;;;;;;7.57;6.07;;;30.10;99.90;;;;;;6105091;23;20204;-93
2022/08/18 14:56:32;;;;;;;7.10;6.43;;;30.20;99.90;;;;;;6105150;23;20156;-93
2022/08/18 14:59:10;;;;;;;6.70;6.10;;;30.20;99.90;;;;;;6105086;23;20177;-94
2022/08/18 15:01:41;;;;;;;7.40;6.70;;;30.30;99.90;;;;;;6105185;23;20196;-94
2022/08/18 15:04:15;;;;;;;6.72;6.20;;;30.40;99.90;;;;;;6105713;23;20188;-96
2022/08/18 15:06:48;;;;;;;7.25;6.55;;;30.60;99.90;;;;;;6105014;23;20211;-94
2022/08/18 15:09:28;;;;;;;6.68;6.05;;;30.50;99.90;;;;;;6106786;23;20255;-94
2022/08/18 15:12:00;;;;;;;7.55;6.28;;;30.70;99.90;;;;;;6108245;23;20179;-95
2022/08/18 15:14:33;;;;;;;7.65;6.93;;;30.90;99.90;;;;;;6129585;23;20472;-92
2022/08/18 15:17:03;;;;;;;6.15;5.53;;;31.00;99.90;;;;;;6104695;23;20194;-95
2022/08/18 15:19:42;;;;;;;6.50;5.88;;;31.10;99.90;;;;;;6103772;23;20189;-94
2022/08/18 15:28:01;;;;;;;6.82;6.32;;;30.40;99.90;;;;;;6103740;23;20193;-94
2022/08/18 15:30:32;;;;;;;6.70;6.18;;;30.50;99.90;;;;;;6103609;23;20174;-94
2022/08/18 15:33:09;;;;;;;6.72;6.22;;;30.40;99.90;;;;;;6103491;23;20177;-94
2022/08/18 15:35:41;;;;;;;6.20;5.80;;;30.20;99.90;;;;;;6104393;23;20256;-94
2022/08/18 15:38:13;;;;;;;7.00;6.50;;;30.30;99.90;;;;;;6103439;23;20154;-93
2022/08/18 15:40:48;;;;;;;5.43;5.10;;;30.40;99.90;;;;;;6104920;23;20197;-93
2022/08/18 15:43:25;;;;;;;5.80;4.75;;;30.60;99.90;;;;;;6103940;23;20174;-93
2022/08/18 15:46:02;;;;;;;5.72;4.85;;;30.70;99.90;;;;;;6103572;23;20177;-94
2022/08/18 15:48:31;;;;;;;6.10;5.50;;;31.00;99.90;;;;;;6103463;23;20230;-95
2022/08/18 15:51:00;;;;;;;6.13;5.55;;;31.20;99.90;;;;;;6103897;23;20496;-93
2022/08/18 15:58:45;;;;;;;6.35;5.35;;;31.30;99.90;;;;;;6131305;23;20252;-95
2022/08/18 16:01:21;;;;;;;5.43;5.03;;;31.30;99.90;;;;;;6105612;23;20193;-95
2022/08/18 16:04:40;;;;;;;4.78;4.50;;;31.20;99.90;;;;;;6131052;23;20676;-95
2022/08/18 16:07:15;;;;;;;4.80;4.50;;;31.20;99.90;;;;;;6106024;23;20181;-95
2022/08/18 16:09:45;;;;;;;4.82;4.43;;;31.10;99.90;;;;;;6105567;23;20596;-95
2022/08/18 16:12:14;;;;;;;5.00;4.70;;;31.00;99.90;;;;;;6105925;23;20198;-95
2022/08/18 16:14:43;;;;;;;6.03;5.40;;;30.90;99.90;;;;;;6083247;23;20657;-95
2022/08/18 16:21:58;;;;;;;7.25;5.45;;;30.70;99.90;;;;;;6130968;23;20244;-95
2022/08/18 16:24:26;;;;;;;6.20;5.55;;;30.70;99.90;;;;;;6080847;23;20612;-95
2022/08/18 16:26:55;;;;;;;5.40;5.00;;;30.70;99.90;;;;;;6130510;23;20174;-95
2022/08/18 16:29:25;;;;;;;5.72;5.32;;;30.80;99.90;;;;;;6080973;23;20174;-96
2022/08/18 16:31:54;;;;;;;6.03;5.60;;;31.10;99.90;;;;;;6105070;23;20167;-94
2022/08/18 16:34:26;;;;;;;7.72;5.55;;;31.00;99.90;;;;;;6082067;23;20182;-94
2022/08/18 16:36:59;;;;;;;6.13;5.53;;;30.70;99.90;;;;;;6083830;23;20159;-94
2022/08/18 16:39:32;;;;;;;9.85;5.93;;;30.50;99.90;;;;;;6106908;23;20174;-93
2022/08/18 16:42:05;;;;;;;5.68;5.18;;;30.40;99.90;;;;;;6131324;23;20186;-94
2022/08/18 16:44:35;;;;;;;6.85;5.93;;;30.50;99.90;;;;;;6106468;23;20181;-94
2022/08/18 16:47:04;;;;;;;6.53;5.97;;;30.60;99.90;;;;;;6082844;23;20550;-94
2022/08/18 16:49:33;;;;;;;6.30;5.78;;;30.60;99.90;;;;;;6081825;23;20183;-94
2022/08/18 16:52:04;;;;;;;6.65;6.22;;;30.60;99.90;;;;;;6105087;23;20281;-95
2022/08/18 16:54:32;;;;;;;9.50;6.85;;;30.40;99.90;;;;;;6081246;23;20172;-93
2022/08/18 16:57:01;;;;;;;7.00;6.40;;;30.30;99.90;;;;;;6105231;23;20173;-94
2022/08/18 17:05:01;;;;;;;6.45;5.93;;;30.10;99.90;;;;;;6104931;23;20208;-96
2022/08/18 17:07:32;;;;;;;9.32;5.88;;;30.10;99.90;;;;;;6129885;23;20232;-95
2022/08/18 17:10:04;;;;;;;6.47;5.97;;;30.10;99.90;;;;;;6104765;23;20153;-93
2022/08/18 17:12:36;;;;;;;7.05;6.53;;;30.10;99.90;;;;;;6104625;23;20623;-94
2022/08/18 17:15:05;;;;;;;6.63;5.90;;;29.90;99.90;;;;;;6080863;23;20216;-94
2022/08/18 17:17:34;;;;;;;5.60;5.20;;;29.80;99.90;;;;;;6105198;23;20161;-94
2022/08/18 17:20:03;;;;;;;6.40;5.78;;;29.70;99.90;;;;;;6102915;23;20182;-93
2022/08/18 17:22:40;;;;;;;6.35;5.70;;;29.60;99.90;;;;;;6103684;23;20203;-95
2022/08/18 17:25:10;;;;;;;5.05;4.75;;;29.50;99.90;;;;;;6103300;23;20199;-93
2022/08/18 17:27:50;;;;;;;6.13;5.72;;;29.50;99.90;;;;;;6080007;23;20231;-92
2022/08/18 17:30:29;;;;;;;5.43;5.03;;;29.30;99.90;;;;;;6128295;23;20168;-94
2022/08/18 17:33:03;;;;;;;5.22;4.80;;;29.30;99.90;;;;;;6102573;23;20167;-93
2022/08/18 17:40:39;;;;;;;5.70;5.18;;;28.90;99.90;;;;;;6128583;23;20671;-93
2022/08/18 17:43:11;;;;;;;5.88;5.15;;;28.70;99.90;;;;;;6101907;23;20173;-93
2022/08/18 17:45:40;;;;;;;6.07;5.68;;;28.60;99.90;;;;;;6102752;23;20168;-92
2022/08/18 17:48:20;;;;;;;5.15;4.90;;;28.60;99.90;;;;;;6103854;23;20229;-92
2022/08/18 17:53:42;;;;;;;5.82;5.32;;;28.30;99.90;;;;;;6102895;23;20171;-93
2022/08/18 17:56:17;;;;;;;5.32;4.85;;;28.20;99.90;;;;;;6129203;23;20476;-94
2022/08/18 17:58:54;;;;;;;5.95;5.10;;;28.10;99.90;;;;;;6089441;23;20195;-93
2022/08/18 18:01:24;;;;;;;7.40;5.95;;;28.00;99.90;;;;;;6129201;23;20515;-94
2022/08/18 18:03:54;;;;;;;6.07;5.50;;;28.00;99.90;;;;;;6106967;23;20171;-93
2022/08/18 18:06:30;;;;;;;5.93;5.40;;;27.80;99.90;;;;;;6107309;23;20172;-94
2022/08/18 18:09:05;;;;;;;6.10;5.60;;;27.60;99.90;;;;;;6107038;23;20612;-94
2022/08/18 18:11:42;;;;;;;6.90;6.13;;;27.40;99.90;;;;;;6108310;23;20172;-93
2022/08/18 18:14:26;;;;;;;6.33;5.40;;;27.20;99.90;;;;;;6112373;23;20195;-94
2022/08/18 18:17:05;;;;;;;6.53;5.90;;;27.00;99.90;;;;;;6114172;23;20191;-94
2022/08/18 18:19:37;;;;;;;7.27;6.13;;;26.80;99.90;;;;;;6113254;23;20171;-94
2022/08/18 18:22:10;;;;;;;6.33;5.93;;;26.70;99.90;;;;;;6110295;23;20218;-94
2022/08/18 18:24:48;;;;;;;6.17;5.67;;;26.60;99.90;;;;;;6112197;23;20194;-94
2022/08/18 18:27:29;;;;;;;6.93;6.37;;;26.40;99.90;;;;;;6109914;23;20202;-94
2022/08/18 18:30:01;;;;;;;6.50;5.90;;;26.20;99.90;;;;;;6109142;23;20232;-95
2022/08/18 18:32:49;;;;;;;13.33;6.70;;;26.00;99.90;;;;;;6108049;23;20162;-95
2022/08/18 18:35:29;;;;;;;6.83;6.13;;;25.80;99.90;;;;;;6105999;23;20486;-93
2022/08/18 18:38:03;;;;;;;6.50;6.00;;;25.60;99.90;;;;;;6104717;23;20186;-94
2022/08/18 18:40:38;;;;;;;6.77;6.33;;;25.50;99.90;;;;;;6104444;23;20171;-93
2022/08/18 18:43:21;;;;;;;6.67;6.07;;;25.40;99.90;;;;;;6104374;23;20258;-93
2022/08/18 18:46:28;;;;;;;6.83;6.23;;;25.20;99.90;;;;;;6129288;23;20498;-94
2022/08/18 18:49:08;;;;;;;6.70;5.77;;;25.10;99.90;;;;;;6088616;23;20644;-95
2022/08/18 18:51:49;;;;;;;7.00;6.40;;;25.00;99.90;;;;;;6104115;23;20183;-94
2022/08/18 18:54:33;;;;;;;7.30;6.60;;;24.90;99.90;;;;;;6104221;23;20201;-93
2022/08/18 18:57:03;;;;;;;6.63;6.23;;;24.80;99.90;;;;;;6103819;23;20167;-94
2022/08/18 18:59:47;;;;;;;7.23;6.73;;;24.60;99.90;;;;;;6127662;23;20204;-93
2022/08/18 19:02:25;;;;;;;7.20;6.50;;;24.50;99.90;;;;;;6103546;23;20624;-93
2022/08/18 19:05:16;;;;;;;7.30;6.30;;;24.40;99.90;;;;;;6104485;23;20174;-94
2022/08/18 19:08:09;;;;;;;6.83;6.20;;;24.30;99.90;;;;;;6103308;23;20166;-94
2022/08/18 19:10:49;;;;;;;7.50;6.50;;;24.10;99.90;;;;;;6103054;23;20232;-94
2022/08/18 19:13:23;;;;;;;7.03;6.53;;;24.00;99.90;;;;;;6103653;23;20186;-93
2022/08/18 19:16:23;;;;;;;7.17;6.57;;;23.90;99.90;;;;;;6103998;23;20166;-94
2022/08/18 19:18:56;;;;;;;7.33;6.63;;;23.80;99.90;;;;;;6103730;23;20204;-94
2022/08/18 19:21:48;;;;;;;7.87;7.13;;;23.70;99.90;;;;;;6128918;23;20239;-93
2022/08/18 19:24:37;;;;;;;7.73;7.00;;;23.60;99.90;;;;;;6104937;23;20216;-93
2022/08/18 19:27:11;;;;;;;7.70;7.10;;;23.50;99.90;;;;;;6105341;23;20180;-93
2022/08/18 19:29:43;;;;;;;9.60;6.47;;;23.40;99.90;;;;;;6103585;23;20165;-93
2022/08/18 19:32:18;;;;;;;7.30;6.57;;;23.40;99.90;;;;;;6104097;23;20177;-94
2022/08/18 19:34:50;;;;;;;7.70;6.67;;;23.30;99.90;;;;;;6106213;23;20165;-94
2022/08/18 19:37:34;;;;;;;7.30;6.60;;;23.20;99.90;;;;;;6106611;23;20196;-94
2022/08/18 19:40:27;;;;;;;7.00;6.37;;;23.10;99.90;;;;;;6101802;23;20232;-93
2022/08/18 19:43:01;;;;;;;10.20;6.90;;;23.00;99.90;;;;;;6128474;23;20197;-93
2022/08/18 19:45:35;;;;;;;6.83;6.30;;;22.90;99.90;;;;;;6103553;23;20595;-93
2022/08/18 19:48:15;;;;;;;8.07;6.97;;;22.80;99.90;;;;;;6104053;23;20197;-93
2022/08/18 19:50:51;;;;;;;7.23;6.63;;;22.80;99.90;;;;;;6103193;23;20183;-94
2022/08/18 19:53:38;;;;;;;10.20;7.13;;;22.70;99.90;;;;;;6151331;23;20166;-93
2022/08/18 19:56:24;;;;;;;7.77;7.13;;;22.60;99.90;;;;;;6102974;23;20179;-93
2022/08/18 19:59:25;;;;;;;7.57;6.97;;;22.50;99.90;;;;;;6127554;23;20223;-93
2022/08/18 20:02:19;;;;;;;7.77;6.90;;;22.40;99.90;;;;;;6103467;23;20180;-93
2022/08/18 20:05:03;;;;;;;8.07;7.47;;;22.30;99.90;;;;;;6127823;23;20174;-94
2022/08/18 20:08:01;;;;;;;8.00;6.93;;;22.10;99.90;;;;;;6102997;23;20191;-93
2022/08/18 20:10:40;;;;;;;8.37;7.57;;;22.00;99.90;;;;;;6102588;23;20175;-93
2022/08/18 20:13:29;;;;;;;10.07;7.50;;;21.90;99.90;;;;;;6104282;23;20163;-94
2022/08/18 20:16:11;;;;;;;18.40;7.37;;;21.70;99.90;;;;;;6102319;23;20170;-94
2022/08/18 20:18:43;;;;;;;7.77;7.10;;;21.70;99.90;;;;;;6103722;23;20170;-94
2022/08/18 20:21:44;;;;;;;8.33;7.50;;;21.50;99.90;;;;;;6102789;23;20171;-91
2022/08/18 20:24:38;;;;;;;8.27;7.40;;;21.40;99.90;;;;;;6102815;23;20575;-93
2022/08/18 20:27:35;;;;;;;8.40;7.43;;;21.40;99.90;;;;;;6103762;23;20249;-94
2022/08/18 20:30:32;;;;;;;8.00;7.30;;;21.30;99.90;;;;;;6103405;23;20171;-95
2022/08/18 20:46:35;;;;;;;8.77;7.97;;;20.90;99.90;;;;;;6104649;23;20155;-94
2022/08/18 20:49:23;;;;;;;11.03;8.33;;;20.90;99.90;;;;;;6104266;23;20175;-95
2022/08/18 20:56:18;;;;;;;12.23;9.57;;;20.80;99.90;;;;;;6127574;23;20186;-93
2022/08/18 20:59:07;;;;;;;10.90;9.67;;;20.70;99.90;;;;;;6103345;23;20202;-93
2022/08/18 21:01:39;;;;;;;10.67;9.57;;;20.60;99.90;;;;;;6104233;23;20486;-94
2022/08/18 21:04:08;;;;;;;10.60;9.50;;;20.60;99.90;;;;;;6104745;23;20195;-93
2022/08/18 21:06:43;;;;;;;9.73;8.50;;;20.50;99.90;;;;;;6107399;23;20497;-93
2022/08/18 21:09:19;;;;;;;10.10;9.10;;;20.50;99.90;;;;;;6130978;23;20198;-95
2022/08/18 21:11:56;;;;;;;11.10;10.00;;;20.50;99.90;;;;;;6106069;23;20167;-93
2022/08/18 21:14:27;;;;;;;10.57;9.40;;;20.50;99.90;;;;;;6102883;23;20167;-94
2022/08/18 21:16:58;;;;;;;12.80;11.20;;;20.50;99.90;;;;;;6127481;23;20174;-95
2022/08/18 21:19:29;;;;;;;12.20;11.00;;;20.60;99.90;;;;;;6101295;23;20185;-92
2022/08/18 21:22:05;;;;;;;13.33;11.00;;;20.60;99.90;;;;;;6101700;23;20273;-94
2022/08/18 21:24:39;;;;;;;11.93;10.73;;;20.70;99.90;;;;;;6102051;23;20202;-93
2022/08/18 21:27:17;;;;;;;11.07;9.97;;;20.70;99.90;;;;;;6102058;23;20186;-93
2022/08/18 21:29:50;;;;;;;10.60;9.57;;;20.70;99.90;;;;;;6102093;23;20185;-93
2022/08/18 21:32:23;;;;;;;10.00;9.10;;;20.60;99.90;;;;;;6102314;23;20502;-94
2022/08/18 21:34:52;;;;;;;9.97;9.13;;;20.50;99.90;;;;;;6102517;23;20179;-94
2022/08/18 21:37:23;;;;;;;9.43;8.47;;;20.30;99.90;;;;;;6102253;23;20546;-93
2022/08/18 21:39:54;;;;;;;10.37;9.37;;;20.20;99.90;;;;;;6101887;23;20163;-94
2022/08/18 21:42:26;;;;;;;11.00;9.83;;;20.10;99.90;;;;;;6125791;23;20171;-94
2022/08/18 21:44:58;;;;;;;11.20;10.20;;;20.00;99.90;;;;;;6102033;23;20501;-92
2022/08/18 21:47:34;;;;;;;14.87;11.90;;;20.00;99.90;;;;;;6101605;23;20177;-93